Time;durP1;ratioP1;P1;durP2;ratioP2;P2;SDS_P1;SDS_P2;PMS_P1;PMS_P2;Temp;Humidity;BMP_temperature;BMP_pressure;BME280_temperature;BME280_humidity;BME280_pressure;Samples;Min_cycle;Max_cycle;Signal;HPM_P1;HPM_P2
2022/10/02 00:00:05;;;;;;;4.60;2.85;;;;;;;16.37;78.05;98427.81;1718895;83;21082;-46
2022/10/02 00:02:58;;;;;;;3.52;2.62;;;;;;;16.36;77.90;98424.30;1718696;83;21604;-46
2022/10/02 00:05:51;;;;;;;3.35;2.40;;;;;;;16.32;77.87;98426.33;1684163;85;21061;-46
2022/10/02 00:08:32;;;;;;;3.83;3.00;;;;;;;16.36;78.07;98427.03;1659636;86;21160;-46
2022/10/02 00:11:09;;;;;;;5.22;3.05;;;;;;;16.39;77.96;98426.80;1718595;83;20964;-46
2022/10/02 00:13:57;;;;;;;4.67;2.58;;;;;;;16.36;77.97;98415.34;1718702;83;21570;-46
2022/10/02 00:16:45;;;;;;;5.22;2.75;;;;;;;16.37;78.02;98405.92;1683761;84;21103;-47
2022/10/02 00:19:14;;;;;;;3.60;2.60;;;;;;;16.42;77.84;98386.28;1716489;83;21016;-46
2022/10/02 00:21:48;;;;;;;;;;;;;;;16.41;77.59;98361.52;1723720;83;21252;-46
2022/10/02 00:24:19;;;;;;;4.10;2.85;;;;;;;16.37;77.63;98342.41;1720981;83;21518;-46
2022/10/02 00:27:01;;;;;;;5.25;2.92;;;;;;;16.24;77.75;98333.32;1686273;85;21019;-46
2022/10/02 00:29:39;;;;;;;6.08;2.52;;;;;;;16.25;77.51;98332.72;1720912;83;21630;-46
2022/10/02 00:32:15;;;;;;;4.17;3.02;;;;;;;16.20;77.48;98330.48;1721057;83;21064;-46
2022/10/02 00:34:50;;;;;;;3.00;2.47;;;;;;;16.13;77.66;98323.77;1686311;85;21955;-46
2022/10/02 00:37:31;;;;;;;4.92;2.70;;;;;;;16.06;77.83;98330.95;1720814;82;20984;-46
2022/10/02 00:40:19;;;;;;;3.83;2.70;;;;;;;16.03;77.89;98331.77;1686156;85;21049;-46
2022/10/02 00:42:55;;;;;;;3.45;2.47;;;;;;;16.03;77.76;98328.27;1720883;83;21633;-46
2022/10/02 00:46:10;;;;;;;3.62;2.58;;;;;;;15.97;77.95;98332.11;1686096;85;21084;-46
2022/10/02 00:48:58;;;;;;;2.87;2.30;;;;;;;15.95;78.30;98329.60;1721022;83;21198;-46
2022/10/02 00:51:36;;;;;;;4.65;2.35;;;;;;;15.97;78.27;98323.13;1720917;83;20926;-46
2022/10/02 00:54:37;;;;;;;5.90;2.90;;;;;;;15.99;78.13;98316.63;1720970;83;20998;-46
2022/10/02 00:57:34;;;;;;;3.52;2.80;;;;;;;15.99;78.16;98313.30;1686080;85;21043;-46
2022/10/02 01:00:18;;;;;;;4.03;2.77;;;;;;;15.95;78.16;98307.14;1686104;85;21017;-46
2022/10/02 01:03:15;;;;;;;2.80;2.40;;;;;;;15.91;78.25;98300.98;1721176;83;21200;-46
2022/10/02 01:05:42;;;;;;;4.85;3.05;;;;;;;15.94;78.07;98296.62;1720844;83;21005;-46
2022/10/02 01:08:09;;;;;;;3.20;2.87;;;;;;;15.91;78.20;98291.41;1686197;85;21082;-46
2022/10/02 01:10:37;;;;;;;2.75;2.47;;;;;;;15.90;78.23;98291.23;1720831;83;21029;-46
2022/10/02 01:13:03;;;;;;;4.47;2.40;;;;;;;15.91;78.11;98279.11;1721124;83;21394;-46
2022/10/02 01:15:38;;;;;;;3.40;2.95;;;;;;;15.95;77.98;98268.09;1720972;83;21144;-47
2022/10/02 01:18:06;;;;;;;4.92;2.98;;;;;;;15.96;77.74;98254.61;1721794;83;20917;-46
2022/10/02 01:20:45;;;;;;;4.90;2.90;;;;;;;15.87;77.92;98233.31;1726128;82;21092;-46
2022/10/02 01:23:36;;;;;;;4.40;3.20;;;;;;;15.81;78.02;98227.39;1691350;84;21040;-46
2022/10/02 01:26:02;;;;;;;5.55;3.22;;;;;;;15.77;78.13;98225.33;1674074;85;21578;-46
2022/10/02 01:28:29;;;;;;;6.05;3.58;;;;;;;15.76;78.39;98209.52;1691381;84;21250;-47
2022/10/02 01:31:01;;;;;;;5.00;3.72;;;;;;;15.77;78.44;98204.23;1674057;85;21036;-46
2022/10/02 01:33:29;;;;;;;5.72;3.40;;;;;;;15.74;78.49;98203.70;1691131;84;21527;-46
2022/10/02 01:35:55;;;;;;;5.33;3.05;;;;;;;15.73;78.51;98204.14;1673825;85;21631;-46
2022/10/02 01:38:22;;;;;;;5.28;3.35;;;;;;;15.78;78.38;98202.28;1691426;84;21075;-46
2022/10/02 01:40:49;;;;;;;5.25;3.58;;;;;;;15.80;78.35;98203.39;1676954;84;21120;-46
2022/10/02 01:43:31;;;;;;;5.83;3.40;;;;;;;15.80;78.26;98202.02;1702340;84;21091;-46
2022/10/02 01:46:15;;;;;;;6.28;3.02;;;;;;;15.77;78.21;98204.23;1702494;84;21101;-46
2022/10/02 01:49:07;;;;;;;5.80;3.33;;;;;;;15.77;78.24;98191.95;1702148;84;21005;-46
2022/10/02 01:52:21;;;;;;;3.10;2.80;;;;;;;15.78;78.22;98185.88;1702242;84;21061;-46
2022/10/02 01:55:00;;;;;;;5.58;2.83;;;;;;;15.73;78.32;98180.32;1702260;84;21142;-46
2022/10/02 01:58:04;;;;;;;3.15;2.75;;;;;;;15.68;78.34;98169.89;1702543;84;21065;-46
2022/10/02 02:00:54;;;;;;;3.40;3.00;;;;;;;15.71;78.32;98156.73;1702481;84;20942;-46
2022/10/02 02:03:44;;;;;;;;;;;;;;;15.68;78.34;98158.95;1704591;84;21585;-46
2022/10/02 02:06:41;;;;;;;6.42;2.87;;;;;;;15.64;78.32;98150.04;1702242;84;20138;-46
2022/10/02 02:09:33;;;;;;;4.55;3.02;;;;;;;15.52;78.55;98150.70;1702009;84;21155;-46
2022/10/02 02:12:21;;;;;;;3.55;2.60;;;;;;;15.56;78.55;98143.19;1702267;84;21012;-46
2022/10/02 02:14:57;;;;;;;4.83;3.53;;;;;;;15.58;78.51;98140.83;1702165;84;20959;-46
2022/10/02 02:17:28;;;;;;;4.78;3.15;;;;;;;15.54;78.59;98136.03;1698644;84;21248;-45
2022/10/02 02:20:02;;;;;;;8.83;2.98;;;;;;;15.55;78.57;98123.89;1693800;84;21007;-45
2022/10/02 02:22:32;;;;;;;4.95;3.22;;;;;;;15.57;78.36;98125.02;1687069;84;21202;-45
2022/10/02 02:25:07;;;;;;;4.60;3.20;;;;;;;15.60;78.48;98126.13;1706739;84;21049;-45
2022/10/02 02:27:43;;;;;;;3.33;2.75;;;;;;;15.58;78.51;98118.97;1699717;84;21100;-45
2022/10/02 02:30:11;;;;;;;3.50;2.92;;;;;;;15.61;78.35;98115.38;1706728;84;21040;-45
2022/10/02 02:32:45;;;;;;;4.87;3.27;;;;;;;15.61;78.21;98108.55;1678488;85;21096;-45
2022/10/02 02:35:17;;;;;;;6.80;3.08;;;;;;;15.63;78.20;98107.55;1742359;82;21318;-45
2022/10/02 02:37:46;;;;;;;4.30;2.80;;;;;;;15.58;78.30;98093.79;1742265;82;20977;-45
2022/10/02 02:40:19;;;;;;;5.92;2.83;;;;;;;15.57;78.35;98087.37;1742536;82;20973;-45
2022/10/02 02:42:51;;;;;;;3.33;3.00;;;;;;;15.64;78.33;98080.37;1742385;82;21080;-45
2022/10/02 02:45:21;;;;;;;5.55;3.58;;;;;;;15.69;78.11;98075.77;1741872;82;21602;-45
2022/10/02 02:47:55;;;;;;;4.35;3.27;;;;;;;15.69;78.00;98067.58;1742806;82;21081;-46
2022/10/02 02:50:27;;;;;;;3.62;2.87;;;;;;;15.65;78.08;98062.20;1742447;82;20957;-46
2022/10/02 02:53:11;;;;;;;7.67;2.70;;;;;;;15.69;77.98;98068.17;1742702;82;21490;-46
2022/10/02 02:55:49;;;;;;;3.72;3.35;;;;;;;15.73;77.82;98068.29;1742264;82;21636;-46
2022/10/02 02:58:30;;;;;;;4.20;3.40;;;;;;;15.78;77.70;98067.02;1742791;82;21019;-46
2022/10/02 03:00:57;;;;;;;3.72;2.95;;;;;;;15.80;77.68;98067.34;1742468;82;21121;-46
2022/10/02 03:03:23;;;;;;;3.70;2.80;;;;;;;15.79;77.57;98063.84;1742450;82;21013;-46
2022/10/02 03:05:55;;;;;;;3.62;2.80;;;;;;;15.83;77.44;98063.78;1742614;82;21605;-46
2022/10/02 03:08:28;;;;;;;4.78;3.22;;;;;;;15.89;77.18;98066.92;1742455;82;21526;-46
2022/10/02 03:11:06;;;;;;;4.47;3.37;;;;;;;15.91;77.03;98079.58;1742570;82;21001;-46
2022/10/02 03:13:57;;;;;;;5.65;3.20;;;;;;;15.90;76.96;98086.23;1742627;82;21582;-46
2022/10/02 03:16:53;;;;;;;4.45;3.00;;;;;;;15.88;76.96;98098.17;1742512;82;21033;-46
2022/10/02 03:19:35;;;;;;;3.75;2.90;;;;;;;15.91;76.81;98108.28;1747617;81;21518;-46
2022/10/02 03:22:40;;;;;;;4.83;3.22;;;;;;;15.91;76.68;98127.41;1749058;82;20930;-46
2022/10/02 03:25:28;;;;;;;4.45;2.87;;;;;;;15.85;76.55;98126.96;1748995;82;21026;-46
2022/10/02 03:28:17;;;;;;;4.00;3.10;;;;;;;15.75;76.90;98110.97;1749091;82;21134;-46
2022/10/02 03:30:44;;;;;;;5.75;2.85;;;;;;;15.75;76.90;98108.23;1748972;81;21557;-46
2022/10/02 03:33:13;;;;;;;4.67;2.92;;;;;;;15.83;76.81;98098.68;1749019;81;20961;-46
2022/10/02 03:35:39;;;;;;;7.08;3.58;;;;;;;15.90;76.81;98087.60;1749284;81;21008;-46
2022/10/02 03:38:10;;;;;;;5.78;3.12;;;;;;;15.96;76.69;98073.61;1748868;82;20966;-46
2022/10/02 03:40:36;;;;;;;;;;;;;;;16.01;76.59;98057.30;1751310;82;21066;-46
2022/10/02 03:43:03;;;;;;;4.55;3.15;;;;;;;16.05;76.43;98039.61;1748892;82;20145;-46
2022/10/02 03:45:30;;;;;;;3.98;2.80;;;;;;;16.07;76.25;98030.36;1748821;82;20957;-46
2022/10/02 03:47:57;;;;;;;4.53;2.87;;;;;;;16.16;76.02;98018.84;1748841;82;20969;-46
2022/10/02 03:50:23;;;;;;;5.87;3.30;;;;;;;16.21;75.75;98007.98;1748751;82;21045;-46
2022/10/02 03:52:51;;;;;;;4.72;3.08;;;;;;;16.22;75.58;98003.44;1748766;82;21840;-46
2022/10/02 03:55:36;;;;;;;4.92;2.87;;;;;;;16.25;75.30;97988.15;1748712;82;20997;-46
2022/10/02 03:58:11;;;;;;;3.87;3.05;;;;;;;16.26;74.96;97985.59;1748813;82;20964;-46
2022/10/02 04:00:42;;;;;;;6.10;3.47;;;;;;;16.23;74.92;97983.70;1747956;82;21012;-46
2022/10/02 04:03:26;;;;;;;4.80;3.35;;;;;;;16.15;75.00;97989.96;1749070;82;21012;-46
2022/10/02 04:06:07;;;;;;;4.67;2.67;;;;;;;16.07;75.13;97991.34;1749020;82;21457;-46
2022/10/02 04:08:43;;;;;;;5.53;3.00;;;;;;;16.01;75.25;97988.36;1748663;82;21013;-46
2022/10/02 04:11:22;;;;;;;3.65;2.80;;;;;;;16.01;75.34;97984.25;1748788;82;21586;-46
2022/10/02 04:14:24;;;;;;;8.90;3.72;;;;;;;16.00;75.44;97988.77;1749282;82;20997;-46
2022/10/02 04:17:06;;;;;;;6.12;3.20;;;;;;;15.96;75.56;97973.06;1748771;81;21025;-46
2022/10/02 04:19:43;;;;;;;5.58;2.98;;;;;;;15.92;75.72;97977.27;1744057;81;21767;-46
2022/10/02 04:22:34;;;;;;;5.78;3.02;;;;;;;15.95;75.66;97975.03;1742027;82;21014;-46
2022/10/02 04:25:08;;;;;;;4.25;3.25;;;;;;;15.95;75.57;97964.09;1730094;82;21033;-46
2022/10/02 04:27:50;;;;;;;6.30;3.77;;;;;;;15.92;75.75;97963.59;1742470;82;20998;-46
2022/10/02 04:30:18;;;;;;;4.78;3.15;;;;;;;15.89;75.78;97943.94;1741475;82;21080;-46
2022/10/02 04:32:46;;;;;;;4.25;3.42;;;;;;;15.89;75.86;97945.90;1742763;82;21959;-46
2022/10/02 04:35:29;;;;;;;6.53;3.20;;;;;;;15.93;75.73;97943.84;1742826;82;20965;-46
2022/10/02 04:38:14;;;;;;;6.62;3.27;;;;;;;15.94;75.67;97918.05;1742257;82;20926;-46
2022/10/02 04:41:18;;;;;;;4.28;3.00;;;;;;;15.92;75.81;97921.83;1742447;82;21722;-46
2022/10/02 04:43:56;;;;;;;6.87;3.50;;;;;;;15.89;75.85;97926.17;1742296;82;21045;-46
2022/10/02 04:47:05;;;;;;;4.70;3.33;;;;;;;15.89;75.82;97910.38;1742359;82;21176;-46
2022/10/02 04:50:02;;;;;;;3.83;3.43;;;;;;;15.89;75.71;97910.38;1742613;82;21077;-46
2022/10/02 04:52:47;;;;;;;5.50;3.25;;;;;;;15.88;75.89;97923.27;1682900;84;21009;-46
2022/10/02 04:55:34;;;;;;;6.10;3.42;;;;;;;15.86;75.90;97931.14;1733631;82;21570;-46
2022/10/02 04:58:21;;;;;;;4.05;3.50;;;;;;;15.89;75.93;97925.41;1721760;83;22160;-46
2022/10/02 05:01:03;;;;;;;6.50;3.98;;;;;;;15.96;75.79;97919.17;1738416;82;21527;-46
2022/10/02 05:03:57;;;;;;;4.45;3.58;;;;;;;16.00;75.69;97910.88;1742511;82;21488;-46
2022/10/02 05:06:46;;;;;;;4.37;3.55;;;;;;;16.00;75.75;97907.55;1742507;82;20965;-46
2022/10/02 05:09:39;;;;;;;6.33;3.60;;;;;;;16.02;75.73;97907.86;1742573;82;20985;-46
2022/10/02 05:12:38;;;;;;;3.83;3.37;;;;;;;16.03;75.50;97905.30;1742713;82;21028;-46
2022/10/02 05:15:29;;;;;;;5.25;3.90;;;;;;;15.78;75.48;97865.55;1732088;82;21076;-46
2022/10/02 05:18:23;;;;;;;6.40;3.85;;;;;;;16.07;75.50;97911.44;1742300;82;21037;-46
2022/10/02 05:21:14;;;;;;;6.42;4.17;;;;;;;16.08;75.46;97916.31;1742312;82;21005;-46
2022/10/02 05:24:26;;;;;;;8.05;4.20;;;;;;;16.12;75.33;97918.98;1684619;82;21009;-47
2022/10/02 05:27:11;;;;;;;6.62;4.00;;;;;;;16.15;75.23;97906.57;1742493;82;21583;-46
2022/10/02 05:29:50;;;;;;;8.10;4.08;;;;;;;16.15;75.35;97908.53;1742352;82;21246;-46
2022/10/02 05:32:47;;;;;;;6.97;4.37;;;;;;;16.12;75.08;97905.30;1740481;82;21548;-46
2022/10/02 05:35:25;;;;;;;6.37;4.15;;;;;;;16.04;75.02;97904.11;1742401;82;20969;-46
2022/10/02 05:38:27;;;;;;;6.37;3.45;;;;;;;15.96;75.28;97894.57;1742590;82;21511;-46
2022/10/02 05:41:34;;;;;;;6.55;4.15;;;;;;;16.01;75.38;97896.78;1742246;82;21108;-46
2022/10/02 05:44:14;;;;;;;8.33;4.65;;;;;;;15.98;75.41;97911.29;1742379;82;21222;-46
2022/10/02 05:47:00;;;;;;;7.33;4.33;;;;;;;15.89;75.62;97908.41;1732373;82;20987;-46
2022/10/02 05:49:43;;;;;;;8.10;4.10;;;;;;;15.87;75.65;97902.63;1742582;82;21081;-46
2022/10/02 05:52:32;;;;;;;5.55;3.72;;;;;;;15.87;75.84;97889.55;1742544;82;21073;-46
2022/10/02 05:55:20;;;;;;;6.87;4.47;;;;;;;15.88;76.06;97881.50;1742527;82;21029;-46
2022/10/02 05:58:28;;;;;;;6.58;3.95;;;;;;;15.92;76.26;97876.73;1742427;82;21215;-46
2022/10/02 06:01:09;;;;;;;5.85;3.47;;;;;;;15.91;76.15;97865.63;1742283;82;20958;-46
2022/10/02 06:04:07;;;;;;;7.05;3.80;;;;;;;15.95;76.34;97854.77;1742482;82;21025;-46
2022/10/02 06:06:47;;;;;;;5.47;3.62;;;;;;;16.03;76.04;97857.47;1698506;82;20973;-46
2022/10/02 06:09:31;;;;;;;7.65;4.60;;;;;;;16.03;75.76;97847.90;1733098;82;21484;-46
2022/10/02 06:12:12;;;;;;;5.80;4.47;;;;;;;15.97;75.66;97842.05;1742512;82;21033;-46
2022/10/02 06:14:51;;;;;;;8.05;4.45;;;;;;;15.90;75.87;97837.52;1742276;82;21025;-46
2022/10/02 06:17:46;;;;;;;6.67;4.67;;;;;;;15.91;76.07;97841.80;1742619;82;21021;-46
2022/10/02 06:20:42;;;;;;;8.73;5.30;;;;;;;15.96;76.00;97841.88;1742250;81;21087;-46
2022/10/02 06:23:25;;;;;;;6.62;4.97;;;;;;;15.89;75.97;97836.58;1742426;82;21017;-46
2022/10/02 06:25:59;;;;;;;9.43;4.87;;;;;;;15.78;76.33;97834.13;1742378;82;21512;-46
2022/10/02 06:28:48;;;;;;;10.13;4.83;;;;;;;15.77;76.43;97832.61;1742561;82;20949;-46
2022/10/02 06:33:58;;;;;;;7.42;5.80;;;;;;;15.79;76.72;97826.10;1829630;78;22630;-45
2022/10/02 06:36:36;;;;;;;7.95;5.87;;;;;;;15.66;76.94;97821.19;1797360;79;20976;-46
2022/10/02 06:39:44;;;;;;;6.75;4.85;;;;;;;15.65;77.12;97819.05;1802505;79;21254;-45
2022/10/02 06:42:37;;;;;;;7.10;5.17;;;;;;;15.68;77.17;97818.80;1803108;79;20947;-45
2022/10/02 06:45:45;;;;;;;7.50;5.95;;;;;;;15.70;77.19;97823.82;1802681;79;20947;-45
2022/10/02 06:48:29;;;;;;;7.67;5.92;;;;;;;15.65;77.27;97816.91;1802666;79;21175;-45
2022/10/02 06:51:20;;;;;;;7.00;5.40;;;;;;;15.56;77.50;97812.67;1801814;79;21003;-45
2022/10/02 06:54:01;;;;;;;6.45;5.55;;;;;;;15.47;77.78;97805.66;1802446;79;23203;-45
2022/10/02 06:57:02;;;;;;;7.60;5.50;;;;;;;15.48;78.12;97814.03;1802650;79;20935;-45
2022/10/02 06:59:57;;;;;;;9.15;6.53;;;;;;;15.54;78.35;97812.34;1802893;79;20998;-45
2022/10/02 07:02:58;;;;;;;8.20;6.03;;;;;;;15.46;78.63;97808.22;1803098;79;21114;-45
2022/10/02 07:05:54;;;;;;;8.43;5.15;;;;;;;15.43;78.75;97814.55;1802984;79;21046;-45
2022/10/02 07:08:55;;;;;;;10.38;6.80;;;;;;;15.37;79.01;97808.83;1802840;79;21135;-45
2022/10/02 07:11:33;;;;;;;8.63;7.55;;;;;;;15.36;79.28;97809.25;1802725;79;21493;-45
2022/10/02 07:14:21;;;;;;;9.95;7.12;;;;;;;15.29;79.71;97806.12;1802860;79;21054;-45
2022/10/02 07:16:57;;;;;;;10.25;6.90;;;;;;;15.30;79.71;97805.52;1802774;79;20954;-45
2022/10/02 07:20:22;;;;;;;7.85;7.03;;;;;;;15.34;79.81;97800.73;1801714;79;21010;-45
2022/10/02 07:23:16;;;;;;;7.20;5.72;;;;;;;15.38;79.96;97804.14;1802948;79;21865;-45
2022/10/02 07:26:07;;;;;;;5.95;5.35;;;;;;;15.30;80.23;97798.70;1796431;79;21044;-45
2022/10/02 07:28:58;;;;;;;5.03;4.12;;;;;;;15.29;80.27;97807.48;1802939;79;20943;-45
2022/10/02 07:31:44;;;;;;;5.62;4.67;;;;;;;15.33;80.12;97810.89;1802983;79;21438;-45
2022/10/02 07:34:41;;;;;;;9.03;5.15;;;;;;;15.33;80.19;97804.66;1792433;79;21081;-45
2022/10/02 07:37:36;;;;;;;4.70;4.15;;;;;;;15.31;80.41;97797.48;1791952;79;21102;-45
2022/10/02 07:40:30;;;;;;;4.60;3.37;;;;;;;15.32;80.48;97786.73;1791700;80;21017;-45
2022/10/02 07:43:24;;;;;;;3.52;3.17;;;;;;;15.36;80.46;97788.77;1791641;79;21003;-45
2022/10/02 07:45:59;;;;;;;4.78;3.52;;;;;;;15.39;80.43;97788.70;1791099;80;21075;-45
2022/10/02 07:48:42;;;;;;;3.02;2.75;;;;;;;15.35;80.58;97780.41;1791468;79;21490;-45
2022/10/02 07:51:48;;;;;;;2.77;2.55;;;;;;;15.34;80.66;97776.94;1791150;80;21167;-45
2022/10/02 07:54:39;;;;;;;2.42;2.22;;;;;;;15.38;80.62;97778.97;1786868;80;20873;-45
2022/10/02 07:57:38;;;;;;;2.37;2.15;;;;;;;15.38;80.71;97772.14;1791144;80;21022;-45
2022/10/02 08:00:12;;;;;;;2.13;1.80;;;;;;;15.37;80.97;97784.85;1791509;79;20984;-45
2022/10/02 08:02:58;;;;;;;2.20;1.85;;;;;;;15.35;81.11;97775.71;1790770;79;22276;-45
2022/10/02 08:05:35;;;;;;;1.82;1.57;;;;;;;15.37;81.19;97763.00;1791387;80;21835;-45
2022/10/02 08:08:07;;;;;;;1.50;1.40;;;;;;;15.38;81.42;97771.38;1790008;79;20928;-45
2022/10/02 08:10:38;;;;;;;2.02;1.37;;;;;;;15.37;81.45;97769.23;1790922;79;21019;-45
2022/10/02 08:13:19;;;;;;;1.30;1.20;;;;;;;15.36;81.63;97757.37;1791050;80;20980;-45
2022/10/02 08:15:51;;;;;;;1.45;1.35;;;;;;;15.41;81.70;97769.14;1791322;80;21022;-45
2022/10/02 08:18:39;;;;;;;2.85;1.77;;;;;;;15.40;81.69;97760.77;1791092;79;21119;-45
2022/10/02 08:21:14;;;;;;;3.50;1.50;;;;;;;15.39;81.91;97757.30;1791035;80;20967;-45
2022/10/02 08:23:55;;;;;;;2.65;1.37;;;;;;;15.41;82.19;97756.84;1791047;80;21055;-45
2022/10/02 08:26:30;;;;;;;1.60;1.47;;;;;;;15.46;81.94;97761.19;1791366;80;20955;-45
2022/10/02 08:29:10;;;;;;;1.47;1.37;;;;;;;15.48;81.73;97748.48;1784191;80;21034;-45
2022/10/02 08:31:37;;;;;;;1.82;1.30;;;;;;;15.45;82.05;97745.23;1778069;79;21051;-45
2022/10/02 08:34:17;;;;;;;2.02;1.30;;;;;;;15.44;81.93;97743.72;1782459;79;21012;-45
2022/10/02 08:37:23;;;;;;;3.20;1.13;;;;;;;15.47;81.46;97747.71;1791526;80;21880;-45
2022/10/02 08:40:46;;;;;;;1.30;1.20;;;;;;;15.49;81.34;97744.56;1791050;80;20946;-45
2022/10/02 08:43:52;;;;;;;1.15;0.98;;;;;;;15.42;81.48;97742.77;1718835;83;21056;-45
2022/10/02 08:46:55;;;;;;;1.77;1.20;;;;;;;15.38;81.27;97744.06;1694185;84;21145;-45
2022/10/02 08:49:43;;;;;;;1.30;1.10;;;;;;;15.40;81.51;97758.03;1664276;84;21914;-45
2022/10/02 08:52:53;;;;;;;1.00;0.90;;;;;;;15.36;81.35;97747.22;1776225;79;20961;-44
2022/10/02 08:55:28;;;;;;;2.90;1.10;;;;;;;15.41;81.30;97741.83;1790983;80;20911;-44
2022/10/02 08:58:29;;;;;;;3.22;1.10;;;;;;;15.50;81.15;97741.38;1790818;79;21590;-44
2022/10/02 09:01:18;;;;;;;1.85;1.20;;;;;;;15.57;81.15;97741.23;1791002;80;21120;-44
2022/10/02 09:04:22;;;;;;;1.02;0.93;;;;;;;15.60;80.83;97740.95;1753041;81;20922;-44
2022/10/02 09:07:01;;;;;;;2.12;1.20;;;;;;;15.63;80.78;97737.37;1748530;81;20958;-45
2022/10/02 09:09:51;;;;;;;1.12;1.02;;;;;;;15.64;79.57;97745.71;1791094;80;21061;-45
2022/10/02 09:12:46;;;;;;;2.75;1.32;;;;;;;15.59;79.54;97742.91;1757793;80;21062;-45
2022/10/02 09:15:20;;;;;;;1.50;0.95;;;;;;;15.52;79.65;97747.81;1782939;80;21891;-45
2022/10/02 09:17:55;;;;;;;3.17;1.30;;;;;;;15.49;79.28;97743.94;1753085;81;21038;-45
2022/10/02 09:21:00;;;;;;;1.62;1.22;;;;;;;15.48;79.28;97745.75;1721305;83;21032;-45
2022/10/02 09:23:58;;;;;;;1.22;1.10;;;;;;;15.45;79.49;97744.63;1742675;82;21065;-45
2022/10/02 09:26:33;;;;;;;1.75;1.20;;;;;;;15.48;79.78;97738.92;1742732;82;20961;-45
2022/10/02 09:29:19;;;;;;;1.10;1.02;;;;;;;15.56;79.11;97745.75;1742523;82;21129;-45
2022/10/02 09:32:33;;;;;;;1.10;1.00;;;;;;;15.56;77.98;97735.59;1742572;82;21036;-45
2022/10/02 09:35:37;;;;;;;2.17;0.82;;;;;;;15.53;78.38;97743.30;1733535;81;21016;-44
2022/10/02 09:38:30;;;;;;;1.12;0.98;;;;;;;15.53;78.45;97732.97;1733895;82;20941;-45
2022/10/02 09:41:24;;;;;;;1.32;1.22;;;;;;;15.58;78.37;97737.91;1733883;82;21045;-44
2022/10/02 09:44:00;;;;;;;1.07;0.98;;;;;;;15.54;78.32;97737.98;1733712;82;21248;-45
2022/10/02 09:47:03;;;;;;;3.05;1.00;;;;;;;15.48;78.47;97737.55;1728696;82;21004;-45
2022/10/02 09:49:56;;;;;;;2.65;1.10;;;;;;;15.47;78.44;97736.02;1675965;85;21100;-45
2022/10/02 09:53:04;;;;;;;1.35;0.80;;;;;;;15.43;78.81;97743.55;1680972;84;21119;-45
2022/10/02 09:56:01;;;;;;;0.40;0.40;;;;;;;15.29;76.88;97752.11;1697471;84;21048;-45
2022/10/02 09:58:50;;;;;;;0.62;0.45;;;;;;;15.03;76.36;97763.47;1778565;80;21144;-45
2022/10/02 10:02:00;;;;;;;0.68;0.50;;;;;;;14.80;76.26;97753.50;1784172;80;20877;-45
2022/10/02 10:04:55;;;;;;;0.50;0.40;;;;;;;14.56;76.54;97763.80;1784086;80;20991;-45
2022/10/02 10:07:50;;;;;;;0.60;0.60;;;;;;;14.38;77.48;97759.94;1783981;80;21020;-45
2022/10/02 10:10:48;;;;;;;3.87;0.57;;;;;;;14.28;77.40;97768.50;1776302;80;20982;-45
2022/10/02 10:13:32;;;;;;;1.72;0.40;;;;;;;14.14;77.56;97773.63;1751741;80;23204;-45
2022/10/02 10:16:48;;;;;;;2.42;0.65;;;;;;;13.96;77.33;97775.18;1783851;80;20917;-45
2022/10/02 10:19:57;;;;;;;1.95;0.60;;;;;;;13.84;77.53;97772.52;1783877;80;21007;-45
2022/10/02 10:23:02;;;;;;;1.53;0.60;;;;;;;13.69;77.67;97782.91;1784279;80;20912;-45
2022/10/02 10:25:59;;;;;;;1.75;0.70;;;;;;;13.61;77.86;97788.88;1783127;80;21016;-45
2022/10/02 10:28:46;;;;;;;0.90;0.60;;;;;;;13.56;77.96;97788.00;1775351;80;21138;-45
2022/10/02 10:31:42;;;;;;;2.02;0.45;;;;;;;13.49;77.61;97797.09;1783901;80;20971;-45
2022/10/02 10:34:56;;;;;;;1.65;0.50;;;;;;;13.48;77.10;97804.48;1794891;79;20996;-45
2022/10/02 10:40:56;;;;;;;0.80;0.60;;;;;;;13.39;77.06;97810.29;1807881;79;21020;-45
2022/10/02 10:43:54;;;;;;;0.62;0.60;;;;;;;13.34;77.36;97815.63;1799342;79;21761;-45
2022/10/02 10:46:38;;;;;;;2.40;0.72;;;;;;;13.30;75.78;97805.39;1807312;79;21620;-45
2022/10/02 10:50:03;;;;;;;5.05;0.70;;;;;;;13.26;75.62;97822.96;1807701;79;20938;-45
2022/10/02 10:52:48;;;;;;;1.70;0.80;;;;;;;13.16;75.50;97818.46;1807776;79;21535;-45
2022/10/02 10:55:22;;;;;;;1.62;0.70;;;;;;;13.11;76.09;97814.27;1807889;79;21025;-44
2022/10/02 10:58:27;;;;;;;0.72;0.53;;;;;;;13.13;76.10;97820.05;1768084;81;21096;-44
2022/10/02 11:01:09;;;;;;;0.70;0.70;;;;;;;13.08;76.12;97810.95;1769261;81;21039;-45
2022/10/02 11:04:12;;;;;;;1.32;0.65;;;;;;;13.01;76.38;97807.00;1750836;82;21088;-45
2022/10/02 11:06:59;;;;;;;0.85;0.78;;;;;;;13.01;76.36;97819.25;1750947;82;20989;-44
2022/10/02 11:09:51;;;;;;;0.88;0.70;;;;;;;12.99;75.87;97817.52;1643401;82;21075;-44
2022/10/02 11:12:31;;;;;;;1.00;0.60;;;;;;;12.83;75.53;97820.12;1751002;82;21141;-45
2022/10/02 11:15:25;;;;;;;3.47;0.50;;;;;;;12.74;75.60;97820.61;1750765;82;21035;-45
2022/10/02 11:18:13;;;;;;;1.02;0.75;;;;;;;12.69;75.12;97824.38;1750740;82;21012;-44
2022/10/02 11:21:21;;;;;;;1.20;0.62;;;;;;;12.56;74.68;97825.53;1750954;81;21570;-44
2022/10/02 11:24:33;;;;;;;0.72;0.68;;;;;;;12.51;75.08;97828.12;1750837;82;21511;-45
2022/10/02 11:27:30;;;;;;;0.70;0.70;;;;;;;12.50;74.79;97832.02;1750986;82;21553;-45
2022/10/02 11:30:26;;;;;;;2.92;1.02;;;;;;;12.47;74.74;97833.42;1750927;81;20989;-45
2022/10/02 11:33:26;;;;;;;4.22;0.82;;;;;;;12.35;74.28;97834.73;1750961;81;21033;-45
2022/10/02 11:36:26;;;;;;;3.40;0.85;;;;;;;12.32;74.16;97840.22;1751025;82;20997;-44
2022/10/02 11:39:12;;;;;;;1.27;0.70;;;;;;;12.27;73.58;97829.80;1751383;81;21080;-45
2022/10/02 11:42:16;;;;;;;0.60;0.50;;;;;;;12.18;73.39;97830.30;1751047;82;21251;-45
2022/10/02 11:45:25;;;;;;;2.22;0.80;;;;;;;12.16;73.53;97829.92;1750964;81;21712;-45
2022/10/02 11:48:32;;;;;;;0.70;0.70;;;;;;;12.19;73.86;97828.55;1750927;82;21073;-44
2022/10/02 11:51:36;;;;;;;1.55;0.70;;;;;;;12.15;73.20;97824.33;1746368;82;21043;-45
2022/10/02 11:54:14;;;;;;;0.70;0.55;;;;;;;12.10;72.80;97828.85;1733567;82;21087;-45
2022/10/02 11:56:59;;;;;;;0.50;0.50;;;;;;;12.16;72.70;97827.20;1733995;82;21004;-45
2022/10/02 12:00:03;;;;;;;2.42;0.60;;;;;;;12.23;72.16;97817.62;1733523;82;20947;-45
2022/10/02 12:02:37;;;;;;;2.12;0.70;;;;;;;12.24;72.32;97821.11;1734906;82;21039;-45
2022/10/02 12:05:54;;;;;;;0.70;0.60;;;;;;;12.22;70.98;97817.44;1734036;82;21258;-44
2022/10/02 12:08:45;;;;;;;2.35;0.60;;;;;;;12.28;70.73;97812.33;1733937;82;21083;-45
2022/10/02 12:11:34;;;;;;;0.45;0.45;;;;;;;12.31;70.06;97824.50;1733693;82;22208;-44
2022/10/02 12:14:28;;;;;;;3.52;0.70;;;;;;;12.28;70.55;97819.89;1733845;82;21423;-44
2022/10/02 12:17:25;;;;;;;1.07;0.50;;;;;;;12.27;70.37;97829.21;1723080;82;21087;-45
2022/10/02 12:26:57;;;;;;;3.22;0.57;;;;;;;12.14;70.13;97817.35;1734296;81;23186;-44
2022/10/02 12:29:48;;;;;;;0.60;0.50;;;;;;;12.04;70.03;97814.17;1733923;82;21048;-44
2022/10/02 12:32:44;;;;;;;3.15;0.50;;;;;;;12.04;70.27;97811.45;1733865;82;21038;-45
2022/10/02 12:35:31;;;;;;;2.90;0.50;;;;;;;11.98;70.21;97813.08;1725015;82;21020;-44
2022/10/02 12:38:16;;;;;;;1.47;0.50;;;;;;;12.00;70.62;97825.67;1777456;80;21056;-45
2022/10/02 12:41:17;;;;;;;2.45;0.62;;;;;;;12.03;69.79;97819.41;1777279;80;21214;-45
2022/10/02 12:43:58;;;;;;;2.77;0.40;;;;;;;12.03;69.32;97818.06;1734508;80;20971;-45
2022/10/02 12:46:58;;;;;;;1.05;0.68;;;;;;;12.01;70.13;97817.68;1777915;80;21047;-44
2022/10/02 12:50:07;;;;;;;1.52;0.53;;;;;;;12.00;70.00;97815.58;1777655;80;21044;-45
2022/10/02 12:53:12;;;;;;;0.53;0.53;;;;;;;12.06;69.96;97818.59;1777760;80;21016;-45
2022/10/02 12:56:15;;;;;;;0.40;0.40;;;;;;;12.09;69.58;97809.65;1777555;80;21117;-45
2022/10/02 12:59:06;;;;;;;2.75;0.57;;;;;;;12.05;69.13;97809.67;1741913;80;21526;-45
2022/10/02 13:02:14;;;;;;;3.70;0.55;;;;;;;11.99;68.72;97811.32;1777569;80;21562;-44
2022/10/02 13:05:12;;;;;;;0.88;0.50;;;;;;;12.01;69.34;97813.02;1777383;80;21540;-45
2022/10/02 13:08:30;;;;;;;0.55;0.55;;;;;;;11.98;68.88;97821.22;1777594;80;22107;-44
2022/10/02 13:11:25;;;;;;;1.87;0.50;;;;;;;11.92;68.94;97822.25;1777354;80;21132;-44
2022/10/02 13:14:40;;;;;;;1.22;0.47;;;;;;;11.84;69.10;97824.09;1777209;80;21492;-44
2022/10/02 13:17:34;;;;;;;4.55;0.82;;;;;;;11.86;68.60;97820.41;1727414;80;21083;-44
2022/10/02 13:20:37;;;;;;;6.08;0.60;;;;;;;11.83;68.53;97817.12;1777351;80;21012;-44